Hav Tind — OZ2071 — position and weather

sailwx.info

Track history (hours):
 
Tides and Currents Weather Stations Pressure Air Temp Water Temp Dewpoint Dewpoint Depression Visibility Wind Speed Wind Dir Waves Ship Positions

Hav Tind

Last reported at 2015-Aug-29 05:27 UTC. Time now 2015-Aug-29 06:15 UTC.
Position N 62°14' W 006°48'.

Length 60 m; draft 4 m.

Type: Cargo ship. MMSI: 231565000.

Date/timePositionNaut miles runAvg speedWind from/ knotsBaromVisibWave heightAir tempDewpointWater temp
2015-Aug-29 05:27N 62°14' W 006°48'0 0.0
2015-Aug-29 04:06N 62°14' W 006°48'0 0.0
2015-Aug-29 03:18N 62°14' W 006°48'0 0.0
2015-Aug-29 00:33N 62°14' W 006°48'0 0.0
2015-Aug-28 21:07N 62°14' W 006°48'1 0.5
2015-Aug-28 19:27N 62°13' W 006°48'0 0.3
2015-Aug-28 18:16N 62°13' W 006°47'0 0.0
2015-Aug-28 17:31N 62°13' W 006°47'4 1.8
2015-Aug-28 15:29N 62°10' W 006°43'1 1.4
2015-Aug-28 14:33N 62°10' W 006°40'6 5.6
2015-Aug-28 13:33N 62°15' W 006°46'15 6.2
2015-Aug-28 11:08N 62°15' W 007°18'5 8.3
2015-Aug-28 10:33N 62°11' W 007°25'18 0.4
2015-Aug-26 13:33N 62°03' W 006°49'1 0.7
2015-Aug-26 12:31N 62°04' W 006°48'3 1.5
2015-Aug-26 10:29N 62°06' W 006°51'1 0.7
2015-Aug-26 08:32N 62°07' W 006°48'5 5.0
2015-Aug-26 07:33N 62°04' W 006°40'9 8.7
2015-Aug-26 06:33N 62°13' W 006°38'5 3.9
2015-Aug-26 05:19N 62°14' W 006°48'0 0.0
2015-Aug-26 04:25N 62°14' W 006°48'0 0.0
2015-Aug-26 03:31N 62°14' W 006°48'0 0.0
2015-Aug-25 19:19N 62°14' W 006°48'0 0.0
2015-Aug-25 18:28N 62°14' W 006°48'0 0.0
2015-Aug-25 15:25N 62°14' W 006°48'5 5.8
2015-Aug-25 14:33N 62°12' W 006°38'5 2.0
2015-Aug-25 12:14N 62°08' W 006°41'0 0.4
2015-Aug-25 11:33N 62°08' W 006°41'4 4.1
2015-Aug-25 10:33N 62°13' W 006°40'4 0.3
2015-Aug-24 18:25N 62°14' W 006°48'1 0.7
2015-Aug-24 17:32N 62°14' W 006°48'0 0.2
2015-Aug-24 16:05N 62°13' W 006°48'5 2.7
2015-Aug-24 14:18N 62°18' W 006°48'6 1.0
2015-Aug-24 08:33N 62°14' W 006°39'4 0.9
2015-Aug-24 04:05N 62°14' W 006°48'0 0.0
2015-Aug-24 03:17N 62°14' W 006°48'0 0.0
2015-Aug-24 02:26N 62°14' W 006°48'0 0.0
2015-Aug-22 20:08N 62°14' W 006°48'0 0.0
2015-Aug-22 18:32N 62°14' W 006°48'0 0.0
2015-Aug-22 17:23N 62°14' W 006°48'0 0.0
2015-Aug-22 16:29N 62°14' W 006°48'0 0.0
2015-Aug-22 15:32N 62°14' W 006°48'0 0.0
2015-Aug-22 14:32N 62°14' W 006°48'0 0.0
2015-Aug-22 13:32N 62°14' W 006°48'0 0.0
2015-Aug-22 12:29N 62°14' W 006°48'0 0.0
2015-Aug-22 11:32N 62°14' W 006°48'0 0.0
2015-Aug-22 10:32N 62°14' W 006°48'0 0.0
2015-Aug-22 09:29N 62°14' W 006°48'0 0.0
2015-Aug-22 08:23N 62°14' W 006°48'0 0.0
2015-Aug-22 07:32N 62°14' W 006°48'0 0.0
2015-Aug-22 06:32N 62°14' W 006°48'0 0.0
2015-Aug-22 05:14N 62°14' W 006°48'0 0.0
2015-Aug-22 04:32N 62°14' W 006°48'0 0.0
2015-Aug-22 02:26N 62°14' W 006°48'0 0.0
2015-Aug-22 01:05N 62°14' W 006°48'0 0.0
2015-Aug-22 00:32N 62°14' W 006°48'9 0.7
2015-Aug-21 12:18N 62°10' W 006°32'7 9.4
2015-Aug-21 11:31N 62°04' W 006°40'4 1.3
2015-Aug-21 08:31N 62°03' W 006°48'7 6.6
2015-Aug-21 07:31N 62°07' W 006°36'6 5.5
2015-Aug-21 06:24N 62°13' W 006°41'4 3.9
2015-Aug-21 05:25N 62°14' W 006°48'0 0.0
2015-Aug-21 04:04N 62°14' W 006°48'0 0.0
2015-Aug-21 03:28N 62°14' W 006°48'0 0.0
2015-Aug-21 02:31N 62°14' W 006°48'0 0.0
2015-Aug-21 01:13N 62°14' W 006°48'0 0.0
2015-Aug-21 00:28N 62°14' W 006°48'0 0.0
2015-Aug-20 23:28N 62°14' W 006°48'0 0.0
2015-Aug-20 22:28N 62°14' W 006°48'1 0.1
2015-Aug-20 15:26N 62°13' W 006°48'1 0.6
2015-Aug-20 14:05N 62°14' W 006°48'0 0.0
2015-Aug-20 13:32N 62°14' W 006°48'6 0.2
2015-Aug-19 09:28N 62°11' W 006°37'3 1.5
2015-Aug-19 07:32N 62°10' W 006°43'2 2.1
2015-Aug-19 06:26N 62°13' W 006°41'  
Track history (hours):
 
Tides and Currents Weather Stations Pressure Air Temp Water Temp Dewpoint Dewpoint Depression Visibility Wind Speed Wind Dir Waves Ship Positions

Hav Tind

Last reported at 2015-Aug-29 05:27 UTC. Time now 2015-Aug-29 06:15 UTC.
Position N 62°14' W 006°48'.

Length 60 m; draft 4 m.

Type: Cargo ship. MMSI: 231565000.

Date/timePositionNaut miles runAvg speedWind from/ knotsBaromVisibWave heightAir tempDewpointWater temp
2015-Aug-29 05:27N 62°14' W 006°48'0 0.0
2015-Aug-29 04:06N 62°14' W 006°48'0 0.0
2015-Aug-29 03:18N 62°14' W 006°48'0 0.0
2015-Aug-29 00:33N 62°14' W 006°48'0 0.0
2015-Aug-28 21:07N 62°14' W 006°48'1 0.5
2015-Aug-28 19:27N 62°13' W 006°48'0 0.3
2015-Aug-28 18:16N 62°13' W 006°47'0 0.0
2015-Aug-28 17:31N 62°13' W 006°47'4 1.8
2015-Aug-28 15:29N 62°10' W 006°43'1 1.4
2015-Aug-28 14:33N 62°10' W 006°40'6 5.6
2015-Aug-28 13:33N 62°15' W 006°46'15 6.2
2015-Aug-28 11:08N 62°15' W 007°18'5 8.3
2015-Aug-28 10:33N 62°11' W 007°25'18 0.4
2015-Aug-26 13:33N 62°03' W 006°49'1 0.7
2015-Aug-26 12:31N 62°04' W 006°48'3 1.5
2015-Aug-26 10:29N 62°06' W 006°51'1 0.7
2015-Aug-26 08:32N 62°07' W 006°48'5 5.0
2015-Aug-26 07:33N 62°04' W 006°40'9 8.7
2015-Aug-26 06:33N 62°13' W 006°38'5 3.9
2015-Aug-26 05:19N 62°14' W 006°48'0 0.0
2015-Aug-26 04:25N 62°14' W 006°48'0 0.0
2015-Aug-26 03:31N 62°14' W 006°48'0 0.0
2015-Aug-25 19:19N 62°14' W 006°48'0 0.0
2015-Aug-25 18:28N 62°14' W 006°48'0 0.0
2015-Aug-25 15:25N 62°14' W 006°48'5 5.8
2015-Aug-25 14:33N 62°12' W 006°38'5 2.0
2015-Aug-25 12:14N 62°08' W 006°41'0 0.4
2015-Aug-25 11:33N 62°08' W 006°41'4 4.1
2015-Aug-25 10:33N 62°13' W 006°40'4 0.3
2015-Aug-24 18:25N 62°14' W 006°48'1 0.7
2015-Aug-24 17:32N 62°14' W 006°48'0 0.2
2015-Aug-24 16:05N 62°13' W 006°48'5 2.7
2015-Aug-24 14:18N 62°18' W 006°48'6 1.0
2015-Aug-24 08:33N 62°14' W 006°39'4 0.9
2015-Aug-24 04:05N 62°14' W 006°48'0 0.0
2015-Aug-24 03:17N 62°14' W 006°48'0 0.0
2015-Aug-24 02:26N 62°14' W 006°48'0 0.0
2015-Aug-22 20:08N 62°14' W 006°48'0 0.0
2015-Aug-22 18:32N 62°14' W 006°48'0 0.0
2015-Aug-22 17:23N 62°14' W 006°48'0 0.0
2015-Aug-22 16:29N 62°14' W 006°48'0 0.0
2015-Aug-22 15:32N 62°14' W 006°48'0 0.0
2015-Aug-22 14:32N 62°14' W 006°48'0 0.0
2015-Aug-22 13:32N 62°14' W 006°48'0 0.0
2015-Aug-22 12:29N 62°14' W 006°48'0 0.0
2015-Aug-22 11:32N 62°14' W 006°48'0 0.0
2015-Aug-22 10:32N 62°14' W 006°48'0 0.0
2015-Aug-22 09:29N 62°14' W 006°48'0 0.0
2015-Aug-22 08:23N 62°14' W 006°48'0 0.0
2015-Aug-22 07:32N 62°14' W 006°48'0 0.0
2015-Aug-22 06:32N 62°14' W 006°48'0 0.0
2015-Aug-22 05:14N 62°14' W 006°48'0 0.0
2015-Aug-22 04:32N 62°14' W 006°48'0 0.0
2015-Aug-22 02:26N 62°14' W 006°48'0 0.0
2015-Aug-22 01:05N 62°14' W 006°48'0 0.0
2015-Aug-22 00:32N 62°14' W 006°48'9 0.7
2015-Aug-21 12:18N 62°10' W 006°32'7 9.4
2015-Aug-21 11:31N 62°04' W 006°40'4 1.3
2015-Aug-21 08:31N 62°03' W 006°48'7 6.6
2015-Aug-21 07:31N 62°07' W 006°36'6 5.5
2015-Aug-21 06:24N 62°13' W 006°41'4 3.9
2015-Aug-21 05:25N 62°14' W 006°48'0 0.0
2015-Aug-21 04:04N 62°14' W 006°48'0 0.0
2015-Aug-21 03:28N 62°14' W 006°48'0 0.0
2015-Aug-21 02:31N 62°14' W 006°48'0 0.0
2015-Aug-21 01:13N 62°14' W 006°48'0 0.0
2015-Aug-21 00:28N 62°14' W 006°48'0 0.0
2015-Aug-20 23:28N 62°14' W 006°48'0 0.0
2015-Aug-20 22:28N 62°14' W 006°48'1 0.1
2015-Aug-20 15:26N 62°13' W 006°48'1 0.6
2015-Aug-20 14:05N 62°14' W 006°48'0 0.0
2015-Aug-20 13:32N 62°14' W 006°48'6 0.2
2015-Aug-19 09:28N 62°11' W 006°37'3 1.5
2015-Aug-19 07:32N 62°10' W 006°43'2 2.1
2015-Aug-19 06:26N 62°13' W 006°41'  

Dump ship's entire track history